FDX25 TNCC-TNCA
Flight info
| Callsign | FDX25 |
|---|---|
| Flight time | 0h 40m |
| Altitude | 7000 |
| Route | ARUB1K ELUMO DCT DAVLA DCT BOMDA |
| Aircraft | C208/L-SDFGR/C |
Departure
| Time | 2026-05-07 22:40 |
|---|---|
| Airport | Hato International Airport (TNCC) |
Arrival
| Time | 2026-05-07 23:21 |
|---|---|
| Airport | Queen Beatrix International Airport (TNCA) |
| Time | Latitude | Longitude | Altitude | Speed | Heading |
|---|---|---|---|---|---|
| 2026-05-07 22:18 | 12.18806 | -68.96851 | 25 ft | 0 kts | 191° |
| 2026-05-07 22:33 | 12.18803 | -68.96852 | 25 ft | 1 kts | 191° |
| 2026-05-07 22:33 | 12.18776 | -68.96877 | 25 ft | 10 kts | 238° |
| 2026-05-07 22:33 | 12.18774 | -68.96910 | 25 ft | 0 kts | 320° |
| 2026-05-07 22:34 | 12.18790 | -68.96911 | 27 ft | 6 kts | 353° |
| 2026-05-07 22:34 | 12.18817 | -68.96918 | 25 ft | 0 kts | 344° |
| 2026-05-07 22:34 | 12.18852 | -68.96929 | 25 ft | 10 kts | 342° |
| 2026-05-07 22:35 | 12.18926 | -68.96991 | 25 ft | 19 kts | 287° |
| 2026-05-07 22:35 | 12.18955 | -68.97148 | 25 ft | 26 kts | 280° |
| 2026-05-07 22:35 | 12.18995 | -68.97336 | 24 ft | 28 kts | 282° |
| 2026-05-07 22:35 | 12.19029 | -68.97492 | 26 ft | 16 kts | 281° |
| 2026-05-07 22:36 | 12.19058 | -68.97580 | 24 ft | 12 kts | 316° |
| 2026-05-07 22:36 | 12.19128 | -68.97578 | 24 ft | 9 kts | 14° |
| 2026-05-07 22:36 | 12.19197 | -68.97561 | 24 ft | 11 kts | 24° |
| 2026-05-07 22:36 | 12.19216 | -68.97499 | 24 ft | 7 kts | 102° |
| 2026-05-07 22:37 | 12.19215 | -68.97495 | 24 ft | 0 kts | 102° |
| 2026-05-07 22:39 | 12.19215 | -68.97492 | 24 ft | 2 kts | 102° |
| 2026-05-07 22:39 | 12.19203 | -68.97436 | 25 ft | 21 kts | 101° |
| 2026-05-07 22:39 | 12.19144 | -68.97159 | 24 ft | 58 kts | 102° |
| 2026-05-07 22:40 | 12.19015 | -68.96475 | 96 ft | 83 kts | 97° |
| 2026-05-07 22:40 | 12.18930 | -68.96071 | 180 ft | 88 kts | 101° |
| 2026-05-07 22:40 | 12.18767 | -68.95262 | 505 ft | 90 kts | 96° |
| 2026-05-07 22:40 | 12.18694 | -68.94829 | 681 ft | 92 kts | 94° |
| 2026-05-07 22:41 | 12.18624 | -68.94211 | 930 ft | 85 kts | 96° |
| 2026-05-07 22:41 | 12.18510 | -68.93638 | 1137 ft | 84 kts | 101° |
| 2026-05-07 22:41 | 12.18366 | -68.93060 | 1338 ft | 83 kts | 100° |
| 2026-05-07 22:41 | 12.18263 | -68.92486 | 1540 ft | 81 kts | 97° |
| 2026-05-07 22:42 | 12.18190 | -68.91918 | 1723 ft | 80 kts | 96° |
| 2026-05-07 22:42 | 12.18138 | -68.91361 | 1898 ft | 78 kts | 94° |
| 2026-05-07 22:42 | 12.18109 | -68.90786 | 2052 ft | 83 kts | 92° |
| 2026-05-07 22:42 | 12.17914 | -68.90229 | 2221 ft | 90 kts | 126° |
| 2026-05-07 22:43 | 12.17651 | -68.89672 | 2382 ft | 89 kts | 110° |
| 2026-05-07 22:43 | 12.17149 | -68.89274 | 2558 ft | 99 kts | 150° |
| 2026-05-07 22:43 | 12.16436 | -68.89348 | 2728 ft | 115 kts | 201° |
| 2026-05-07 22:43 | 12.15854 | -68.89962 | 2912 ft | 123 kts | 220° |
| 2026-05-07 22:44 | 12.15274 | -68.90603 | 3098 ft | 124 kts | 218° |
| 2026-05-07 22:44 | 12.14683 | -68.91248 | 3279 ft | 124 kts | 220° |
| 2026-05-07 22:44 | 12.14089 | -68.91895 | 3451 ft | 125 kts | 220° |
| 2026-05-07 22:44 | 12.13488 | -68.92544 | 3624 ft | 127 kts | 220° |
| 2026-05-07 22:45 | 12.12884 | -68.93195 | 3798 ft | 129 kts | 220° |
| 2026-05-07 22:45 | 12.12263 | -68.93863 | 3967 ft | 130 kts | 219° |
| 2026-05-07 22:45 | 12.11910 | -68.94729 | 4130 ft | 141 kts | 274° |
| 2026-05-07 22:45 | 12.12113 | -68.95706 | 4327 ft | 141 kts | 281° |
| 2026-05-07 22:46 | 12.12304 | -68.96693 | 4493 ft | 143 kts | 282° |
| 2026-05-07 22:46 | 12.12502 | -68.97691 | 4665 ft | 143 kts | 283° |
| 2026-05-07 22:46 | 12.12705 | -68.98682 | 4831 ft | 142 kts | 282° |
| 2026-05-07 22:46 | 12.12905 | -68.99668 | 4996 ft | 142 kts | 282° |
| 2026-05-07 22:47 | 12.13103 | -69.00657 | 5175 ft | 142 kts | 282° |
| 2026-05-07 22:47 | 12.13314 | -69.01644 | 5356 ft | 143 kts | 282° |
| 2026-05-07 22:47 | 12.13512 | -69.02639 | 5524 ft | 142 kts | 281° |
| 2026-05-07 22:47 | 12.13716 | -69.03627 | 5691 ft | 143 kts | 281° |
| 2026-05-07 22:48 | 12.13911 | -69.04610 | 5852 ft | 143 kts | 281° |
| 2026-05-07 22:48 | 12.14110 | -69.05607 | 6030 ft | 143 kts | 281° |
| 2026-05-07 22:48 | 12.14317 | -69.06600 | 6210 ft | 142 kts | 281° |
| 2026-05-07 22:48 | 12.14516 | -69.07589 | 6381 ft | 142 kts | 281° |
| 2026-05-07 22:49 | 12.14718 | -69.08576 | 6544 ft | 141 kts | 281° |
| 2026-05-07 22:49 | 12.14917 | -69.09557 | 6708 ft | 141 kts | 281° |
| 2026-05-07 22:49 | 12.15116 | -69.10538 | 6870 ft | 141 kts | 281° |
| 2026-05-07 22:49 | 12.15317 | -69.11539 | 6953 ft | 149 kts | 281° |
| 2026-05-07 22:50 | 12.15539 | -69.12610 | 6962 ft | 159 kts | 281° |
| 2026-05-07 22:50 | 12.15770 | -69.13728 | 6962 ft | 166 kts | 282° |
| 2026-05-07 22:50 | 12.16011 | -69.14908 | 6960 ft | 172 kts | 282° |
| 2026-05-07 22:50 | 12.16259 | -69.16124 | 6957 ft | 177 kts | 281° |
| 2026-05-07 22:51 | 12.16511 | -69.17367 | 6959 ft | 180 kts | 281° |
| 2026-05-07 22:51 | 12.16766 | -69.18623 | 6957 ft | 181 kts | 281° |
| 2026-05-07 22:51 | 12.17020 | -69.19888 | 6953 ft | 182 kts | 281° |
| 2026-05-07 22:51 | 12.17278 | -69.21159 | 6956 ft | 183 kts | 281° |
| 2026-05-07 22:52 | 12.17537 | -69.22442 | 6949 ft | 184 kts | 281° |
| 2026-05-07 22:52 | 12.17797 | -69.23731 | 6950 ft | 186 kts | 281° |
| 2026-05-07 22:52 | 12.18056 | -69.25011 | 6948 ft | 186 kts | 281° |
| 2026-05-07 22:52 | 12.18318 | -69.26310 | 6942 ft | 188 kts | 281° |
| 2026-05-07 22:53 | 12.18583 | -69.27622 | 6943 ft | 189 kts | 281° |
| 2026-05-07 22:53 | 12.18850 | -69.28939 | 6945 ft | 189 kts | 281° |
| 2026-05-07 22:53 | 12.19115 | -69.30254 | 6948 ft | 189 kts | 281° |
| 2026-05-07 22:53 | 12.19380 | -69.31569 | 6943 ft | 189 kts | 281° |
| 2026-05-07 22:54 | 12.19647 | -69.32892 | 6936 ft | 190 kts | 281° |
| 2026-05-07 22:54 | 12.19914 | -69.34219 | 6936 ft | 191 kts | 281° |
| 2026-05-07 22:54 | 12.20184 | -69.35554 | 6939 ft | 192 kts | 281° |
| 2026-05-07 22:54 | 12.20453 | -69.36884 | 6945 ft | 190 kts | 281° |
| 2026-05-07 22:55 | 12.20718 | -69.38205 | 6942 ft | 190 kts | 281° |
| 2026-05-07 22:55 | 12.20986 | -69.39533 | 6939 ft | 191 kts | 281° |
| 2026-05-07 22:55 | 12.21250 | -69.40842 | 6941 ft | 190 kts | 281° |
| 2026-05-07 22:55 | 12.21514 | -69.42155 | 6942 ft | 188 kts | 281° |
| 2026-05-07 22:56 | 12.21777 | -69.43460 | 6939 ft | 187 kts | 281° |
| 2026-05-07 22:56 | 12.22039 | -69.44764 | 6939 ft | 187 kts | 281° |
| 2026-05-07 22:56 | 12.22302 | -69.46075 | 6932 ft | 189 kts | 281° |
| 2026-05-07 22:56 | 12.22568 | -69.47390 | 6935 ft | 188 kts | 281° |
| 2026-05-07 22:57 | 12.22830 | -69.48696 | 6934 ft | 187 kts | 281° |
| 2026-05-07 22:57 | 12.23092 | -69.49997 | 6935 ft | 186 kts | 281° |
| 2026-05-07 22:57 | 12.23350 | -69.51295 | 6928 ft | 187 kts | 281° |
| 2026-05-07 22:57 | 12.23615 | -69.52606 | 6925 ft | 189 kts | 281° |
| 2026-05-07 22:58 | 12.23882 | -69.53929 | 6930 ft | 190 kts | 281° |
| 2026-05-07 22:58 | 12.24147 | -69.55253 | 6930 ft | 190 kts | 281° |
| 2026-05-07 22:58 | 12.24409 | -69.56559 | 6929 ft | 190 kts | 281° |
| 2026-05-07 22:58 | 12.24677 | -69.57888 | 6933 ft | 190 kts | 282° |
| 2026-05-07 22:59 | 12.24941 | -69.59208 | 6959 ft | 189 kts | 281° |
| 2026-05-07 22:59 | 12.25206 | -69.60528 | 6961 ft | 190 kts | 281° |
| 2026-05-07 22:59 | 12.25471 | -69.61847 | 6961 ft | 190 kts | 281° |
| 2026-05-07 22:59 | 12.25736 | -69.63169 | 6962 ft | 190 kts | 281° |
| 2026-05-07 23:00 | 12.26002 | -69.64494 | 6964 ft | 190 kts | 281° |
| 2026-05-07 23:00 | 12.26267 | -69.65819 | 6966 ft | 190 kts | 281° |
| 2026-05-07 23:00 | 12.26600 | -69.67124 | 6964 ft | 190 kts | 289° |
| 2026-05-07 23:00 | 12.27028 | -69.68386 | 6966 ft | 191 kts | 289° |
| 2026-05-07 23:01 | 12.27455 | -69.69673 | 6966 ft | 191 kts | 289° |
| 2026-05-07 23:01 | 12.27877 | -69.70962 | 6969 ft | 192 kts | 289° |
| 2026-05-07 23:01 | 12.28297 | -69.72253 | 6968 ft | 191 kts | 289° |
| 2026-05-07 23:01 | 12.28719 | -69.73544 | 6966 ft | 191 kts | 289° |
| 2026-05-07 23:02 | 12.29140 | -69.74837 | 6968 ft | 192 kts | 289° |
| 2026-05-07 23:02 | 12.29563 | -69.76131 | 6969 ft | 192 kts | 289° |
| 2026-05-07 23:02 | 12.29986 | -69.77423 | 6968 ft | 191 kts | 289° |
| 2026-05-07 23:02 | 12.30406 | -69.78714 | 6967 ft | 191 kts | 289° |
| 2026-05-07 23:03 | 12.30826 | -69.80001 | 6962 ft | 191 kts | 289° |
| 2026-05-07 23:03 | 12.31244 | -69.81287 | 6958 ft | 191 kts | 289° |
| 2026-05-07 23:03 | 12.31665 | -69.82576 | 6956 ft | 191 kts | 289° |
| 2026-05-07 23:03 | 12.32085 | -69.83867 | 6954 ft | 191 kts | 289° |
| 2026-05-07 23:04 | 12.32506 | -69.85156 | 6955 ft | 191 kts | 289° |
| 2026-05-07 23:04 | 12.32925 | -69.86442 | 6956 ft | 190 kts | 289° |
| 2026-05-07 23:04 | 12.33339 | -69.87713 | 6955 ft | 191 kts | 289° |
| 2026-05-07 23:04 | 12.33760 | -69.89005 | 6955 ft | 191 kts | 288° |
| 2026-05-07 23:05 | 12.34178 | -69.90289 | 6963 ft | 189 kts | 289° |
| 2026-05-07 23:05 | 12.34594 | -69.91556 | 6964 ft | 187 kts | 289° |
| 2026-05-07 23:05 | 12.35002 | -69.92815 | 6963 ft | 187 kts | 289° |
| 2026-05-07 23:05 | 12.35413 | -69.94077 | 6960 ft | 187 kts | 289° |
| 2026-05-07 23:06 | 12.35825 | -69.95344 | 6953 ft | 189 kts | 288° |
| 2026-05-07 23:06 | 12.36237 | -69.96619 | 6956 ft | 188 kts | 289° |
| 2026-05-07 23:06 | 12.36652 | -69.97883 | 6955 ft | 187 kts | 289° |
| 2026-05-07 23:06 | 12.37062 | -69.99139 | 6960 ft | 185 kts | 289° |
| 2026-05-07 23:07 | 12.37468 | -70.00387 | 6957 ft | 185 kts | 289° |
| 2026-05-07 23:07 | 12.37875 | -70.01634 | 6952 ft | 186 kts | 289° |
| 2026-05-07 23:07 | 12.38277 | -70.02883 | 6953 ft | 188 kts | 289° |
| 2026-05-07 23:07 | 12.38687 | -70.04156 | 6956 ft | 188 kts | 289° |
| 2026-05-07 23:08 | 12.39104 | -70.05422 | 6961 ft | 187 kts | 289° |
| 2026-05-07 23:08 | 12.39516 | -70.06684 | 6958 ft | 187 kts | 290° |
| 2026-05-07 23:08 | 12.39927 | -70.07955 | 6955 ft | 189 kts | 289° |
| 2026-05-07 23:08 | 12.40342 | -70.09241 | 6953 ft | 191 kts | 289° |
| 2026-05-07 23:09 | 12.40761 | -70.10529 | 6956 ft | 191 kts | 289° |
| 2026-05-07 23:09 | 12.41182 | -70.11818 | 6959 ft | 191 kts | 289° |
| 2026-05-07 23:09 | 12.41599 | -70.13108 | 6963 ft | 190 kts | 289° |
| 2026-05-07 23:09 | 12.42016 | -70.14382 | 6967 ft | 188 kts | 290° |
| 2026-05-07 23:10 | 12.42424 | -70.15634 | 6959 ft | 187 kts | 289° |
| 2026-05-07 23:10 | 12.42831 | -70.16895 | 6957 ft | 187 kts | 289° |
| 2026-05-07 23:10 | 12.43240 | -70.18161 | 6955 ft | 188 kts | 289° |
| 2026-05-07 23:10 | 12.43670 | -70.19478 | 6742 ft | 201 kts | 289° |
| 2026-05-07 23:11 | 12.44105 | -70.20805 | 6511 ft | 190 kts | 289° |
| 2026-05-07 23:11 | 12.44545 | -70.22045 | 6269 ft | 182 kts | 298° |
| 2026-05-07 23:11 | 12.45325 | -70.23015 | 6021 ft | 174 kts | 323° |
| 2026-05-07 23:11 | 12.46364 | -70.23587 | 5770 ft | 167 kts | 349° |
| 2026-05-07 23:12 | 12.47489 | -70.23722 | 5520 ft | 160 kts | 11° |
| 2026-05-07 23:12 | 12.48535 | -70.23503 | 5285 ft | 153 kts | 22° |
| 2026-05-07 23:12 | 12.49569 | -70.23249 | 5047 ft | 153 kts | 21° |
| 2026-05-07 23:12 | 12.50621 | -70.22991 | 4697 ft | 158 kts | 20° |
| 2026-05-07 23:13 | 12.51693 | -70.22728 | 4354 ft | 158 kts | 21° |
| 2026-05-07 23:13 | 12.52746 | -70.22471 | 4119 ft | 154 kts | 22° |
| 2026-05-07 23:13 | 12.53696 | -70.22059 | 3880 ft | 144 kts | 45° |
| 2026-05-07 23:13 | 12.54315 | -70.21291 | 3645 ft | 138 kts | 68° |
| 2026-05-07 23:14 | 12.54544 | -70.20359 | 3411 ft | 133 kts | 89° |
| 2026-05-07 23:14 | 12.54396 | -70.19426 | 3178 ft | 133 kts | 104° |
| 2026-05-07 23:14 | 12.54172 | -70.18506 | 2941 ft | 132 kts | 102° |
| 2026-05-07 23:14 | 12.53956 | -70.17594 | 2704 ft | 132 kts | 103° |
| 2026-05-07 23:15 | 12.53737 | -70.16684 | 2449 ft | 131 kts | 103° |
| 2026-05-07 23:15 | 12.53521 | -70.15789 | 2217 ft | 129 kts | 103° |
| 2026-05-07 23:15 | 12.53312 | -70.14898 | 1987 ft | 128 kts | 102° |
| 2026-05-07 23:15 | 12.53110 | -70.14054 | 1955 ft | 116 kts | 101° |
| 2026-05-07 23:16 | 12.52931 | -70.13278 | 1947 ft | 109 kts | 101° |
| 2026-05-07 23:16 | 12.52759 | -70.12551 | 1888 ft | 106 kts | 102° |
| 2026-05-07 23:16 | 12.52580 | -70.11805 | 1753 ft | 109 kts | 102° |
| 2026-05-07 23:16 | 12.52399 | -70.11053 | 1616 ft | 108 kts | 101° |
| 2026-05-07 23:17 | 12.52221 | -70.10305 | 1469 ft | 108 kts | 101° |
| 2026-05-07 23:17 | 12.52042 | -70.09551 | 1330 ft | 110 kts | 101° |
| 2026-05-07 23:17 | 12.51861 | -70.08792 | 1180 ft | 108 kts | 100° |
| 2026-05-07 23:17 | 12.51692 | -70.08075 | 1047 ft | 101 kts | 101° |
| 2026-05-07 23:18 | 12.51533 | -70.07398 | 917 ft | 94 kts | 101° |
| 2026-05-07 23:18 | 12.51386 | -70.06781 | 831 ft | 80 kts | 102° |
| 2026-05-07 23:18 | 12.51267 | -70.06272 | 728 ft | 68 kts | 101° |
| 2026-05-07 23:18 | 12.51161 | -70.05809 | 644 ft | 65 kts | 101° |
| 2026-05-07 23:19 | 12.51055 | -70.05369 | 563 ft | 63 kts | 97° |
| 2026-05-07 23:19 | 12.50955 | -70.04939 | 482 ft | 62 kts | 97° |
| 2026-05-07 23:19 | 12.50854 | -70.04511 | 406 ft | 63 kts | 96° |
| 2026-05-07 23:19 | 12.50756 | -70.04078 | 317 ft | 63 kts | 98° |
| 2026-05-07 23:20 | 12.50643 | -70.03645 | 224 ft | 63 kts | 100° |
| 2026-05-07 23:20 | 12.50538 | -70.03204 | 137 ft | 64 kts | 98° |
| 2026-05-07 23:20 | 12.50433 | -70.02756 | 61 ft | 66 kts | 97° |
| 2026-05-07 23:20 | 12.50327 | -70.02326 | 20 ft | 53 kts | 99° |
| 2026-05-07 23:21 | 12.50262 | -70.02033 | 25 ft | 33 kts | 104° |
| 2026-05-07 23:21 | 12.50198 | -70.01787 | 29 ft | 39 kts | 103° |
| 2026-05-07 23:21 | 12.50147 | -70.01559 | 34 ft | 18 kts | 104° |
| 2026-05-07 23:21 | 12.50126 | -70.01469 | 35 ft | 12 kts | 97° |
| 2026-05-07 23:22 | 12.50172 | -70.01398 | 37 ft | 14 kts | 19° |
| 2026-05-07 23:22 | 12.50268 | -70.01387 | 37 ft | 10 kts | 336° |
| 2026-05-07 23:22 | 12.50338 | -70.01373 | 37 ft | 10 kts | 78° |
| 2026-05-07 23:22 | 12.50350 | -70.01338 | 37 ft | 5 kts | 59° |
| 2026-05-07 23:23 | 12.50406 | -70.01316 | 37 ft | 10 kts | 10° |
| 2026-05-07 23:23 | 12.50422 | -70.01313 | 37 ft | 0 kts | 10° |